sensor_id;sensor_type;location;lat;lon;timestamp;pressure;altitude;pressure_sealevel;temperature;humidity
68489;BME280;55481;48.764;8.936;2023-06-01T00:01:49;97220;;;12.9;44.5
68489;BME280;55481;48.764;8.936;2023-06-01T00:09:22;97210;;;13;44.5
68489;BME280;55481;48.764;8.936;2023-06-01T00:11:53;97210;;;12.9;44.5
68489;BME280;55481;48.764;8.936;2023-06-01T00:14:23;97220;;;12.8;45
68489;BME280;55481;48.764;8.936;2023-06-01T00:16:54;97220;;;12.8;45
68489;BME280;55481;48.764;8.936;2023-06-01T00:19:32;97210;;;12.7;45
68489;BME280;55481;48.764;8.936;2023-06-01T00:22:03;97210;;;12.7;45
68489;BME280;55481;48.764;8.936;2023-06-01T00:24:34;97210;;;12.7;45
68489;BME280;55481;48.764;8.936;2023-06-01T00:27:11;97220;;;12.4;45.5
68489;BME280;55481;48.764;8.936;2023-06-01T00:32:19;97220;;;12;46
68489;BME280;55481;48.764;8.936;2023-06-01T00:37:14;97210;;;12.3;45.5
68489;BME280;55481;48.764;8.936;2023-06-01T00:39:44;97210;;;12.3;45.5
68489;BME280;55481;48.764;8.936;2023-06-01T00:44:39;97220;;;12.1;46
68489;BME280;55481;48.764;8.936;2023-06-01T00:47:08;97210;;;12.3;45.5
68489;BME280;55481;48.764;8.936;2023-06-01T00:49:39;97210;;;12.3;45.5
68489;BME280;55481;48.764;8.936;2023-06-01T00:52:17;97210;;;12.2;46
68489;BME280;55481;48.764;8.936;2023-06-01T00:59:49;97210;;;11.8;46.5
68489;BME280;55481;48.764;8.936;2023-06-01T01:02:20;97210;;;11.7;47
68489;BME280;55481;48.764;8.936;2023-06-01T01:07:15;97210;;;11.7;47
68489;BME280;55481;48.764;8.936;2023-06-01T01:09:49;97210;;;11.8;46.5
68489;BME280;55481;48.764;8.936;2023-06-01T01:12:20;97200;;;11.9;46.5
68489;BME280;55481;48.764;8.936;2023-06-01T01:14:40;97200;;;11.7;46.5
68489;BME280;55481;48.764;8.936;2023-06-01T01:17:13;97200;;;11.5;47
68489;BME280;55481;48.764;8.936;2023-06-01T01:20:13;97200;;;11.5;47
68489;BME280;55481;48.764;8.936;2023-06-01T01:27:53;97200;;;11.4;47.5
68489;BME280;55481;48.764;8.936;2023-06-01T01:29:45;97200;;;11.3;47.5
68489;BME280;55481;48.764;8.936;2023-06-01T01:32:15;97200;;;11.4;47.5
68489;BME280;55481;48.764;8.936;2023-06-01T01:37:22;97200;;;11.6;47
68489;BME280;55481;48.764;8.936;2023-06-01T01:39:54;97200;;;11.6;47
68489;BME280;55481;48.764;8.936;2023-06-01T01:42:24;97190;;;11.6;47
68489;BME280;55481;48.764;8.936;2023-06-01T01:47:20;97190;;;11.2;47.5
68489;BME280;55481;48.764;8.936;2023-06-01T01:54:52;97190;;;11.1;48
68489;BME280;55481;48.764;8.936;2023-06-01T01:57:22;97200;;;11.2;47.5
68489;BME280;55481;48.764;8.936;2023-06-01T01:59:53;97190;;;11.2;48
68489;BME280;55481;48.764;8.936;2023-06-01T02:05:01;97190;;;11.3;47.5
68489;BME280;55481;48.764;8.936;2023-06-01T02:07:32;97180;;;11.3;47.5
68489;BME280;55481;48.764;8.936;2023-06-01T02:10:09;97190;;;11.4;47.5
68489;BME280;55481;48.764;8.936;2023-06-01T02:15:24;97180;;;11.2;48
68489;BME280;55481;48.764;8.936;2023-06-01T02:17:40;97180;;;11.2;48
68489;BME280;55481;48.764;8.936;2023-06-01T02:20:11;97180;;;11.3;48
68489;BME280;55481;48.764;8.936;2023-06-01T02:22:41;97180;;;11.2;48
68489;BME280;55481;48.764;8.936;2023-06-01T02:25:12;97170;;;10.9;48.5
68489;BME280;55481;48.764;8.936;2023-06-01T02:27:35;97180;;;10.8;49
68489;BME280;55481;48.764;8.936;2023-06-01T02:30:13;97180;;;10.7;49
68489;BME280;55481;48.764;8.936;2023-06-01T02:32:37;97180;;;10.8;49
68489;BME280;55481;48.764;8.936;2023-06-01T02:35:14;97180;;;10.8;48.5
68489;BME280;55481;48.764;8.936;2023-06-01T02:40:02;97180;;;11;48.5
68489;BME280;55481;48.764;8.936;2023-06-01T02:42:33;97180;;;10.9;48.5
68489;BME280;55481;48.764;8.936;2023-06-01T02:47:35;97170;;;11;48.5
68489;BME280;55481;48.764;8.936;2023-06-01T02:50:06;97180;;;11;48.5
68489;BME280;55481;48.764;8.936;2023-06-01T02:52:38;97180;;;10.9;48.5
68489;BME280;55481;48.764;8.936;2023-06-01T02:55:07;97180;;;10.6;49
68489;BME280;55481;48.764;8.936;2023-06-01T02:57:52;97180;;;10.5;49.5
68489;BME280;55481;48.764;8.936;2023-06-01T03:00:21;97180;;;10.4;50
68489;BME280;55481;48.764;8.936;2023-06-01T03:02:51;97180;;;10.6;49.5
68489;BME280;55481;48.764;8.936;2023-06-01T03:05:28;97180;;;10.5;49.5
68489;BME280;55481;48.764;8.936;2023-06-01T03:07:59;97180;;;10.5;49.5
68489;BME280;55481;48.764;8.936;2023-06-01T03:10:23;97180;;;10.6;49.5
68489;BME280;55481;48.764;8.936;2023-06-01T03:15:16;97180;;;10.7;49
68489;BME280;55481;48.764;8.936;2023-06-01T03:17:47;97180;;;10.7;49.5
68489;BME280;55481;48.764;8.936;2023-06-01T03:20:18;97180;;;10.7;49.5
68489;BME280;55481;48.764;8.936;2023-06-01T03:22:49;97180;;;10.7;49.5
68489;BME280;55481;48.764;8.936;2023-06-01T03:25:20;97180;;;10.7;49.5
68489;BME280;55481;48.764;8.936;2023-06-01T03:27:57;97180;;;10.7;49.5
68489;BME280;55481;48.764;8.936;2023-06-01T03:30:28;97180;;;10.7;49.5
68489;BME280;55481;48.764;8.936;2023-06-01T03:35:28;97180;;;10.6;50
68489;BME280;55481;48.764;8.936;2023-06-01T03:40:33;97180;;;10.5;50
68489;BME280;55481;48.764;8.936;2023-06-01T03:43:04;97190;;;10.6;50
68489;BME280;55481;48.764;8.936;2023-06-01T03:47:57;97190;;;10.5;50
68489;BME280;55481;48.764;8.936;2023-06-01T03:50:28;97190;;;10.6;50
68489;BME280;55481;48.764;8.936;2023-06-01T03:53:06;97190;;;10.5;50
68489;BME280;55481;48.764;8.936;2023-06-01T03:55:36;97190;;;10.4;50
68489;BME280;55481;48.764;8.936;2023-06-01T04:00:51;97190;;;10.7;49.5
68489;BME280;55481;48.764;8.936;2023-06-01T04:03:08;97200;;;10.7;49.5
68489;BME280;55481;48.764;8.936;2023-06-01T04:05:39;97200;;;10.6;50
68489;BME280;55481;48.764;8.936;2023-06-01T04:08:12;97200;;;10.6;50
68489;BME280;55481;48.764;8.936;2023-06-01T04:13:02;97200;;;10.8;49.5
68489;BME280;55481;48.764;8.936;2023-06-01T04:15:33;97190;;;10.9;49.5
68489;BME280;55481;48.764;8.936;2023-06-01T04:18:04;97190;;;11;49.5
68489;BME280;55481;48.764;8.936;2023-06-01T04:22:59;97200;;;10.8;50
68489;BME280;55481;48.764;8.936;2023-06-01T04:25:30;97200;;;10.9;50
68489;BME280;55481;48.764;8.936;2023-06-01T04:28:00;97200;;;10.9;50
68489;BME280;55481;48.764;8.936;2023-06-01T04:30:32;97200;;;10.9;50
68489;BME280;55481;48.764;8.936;2023-06-01T04:33:02;97200;;;11.1;49.5
68489;BME280;55481;48.764;8.936;2023-06-01T04:35:33;97200;;;11.2;49.5
68489;BME280;55481;48.764;8.936;2023-06-01T04:38:03;97200;;;11.4;49
68489;BME280;55481;48.764;8.936;2023-06-01T04:40:34;97200;;;11.5;49.5
68489;BME280;55481;48.764;8.936;2023-06-01T04:43:04;97200;;;11.4;49.5
68489;BME280;55481;48.764;8.936;2023-06-01T04:53:08;97210;;;11.5;49.5
68489;BME280;55481;48.764;8.936;2023-06-01T04:55:39;97210;;;11.6;49.5
68489;BME280;55481;48.764;8.936;2023-06-01T04:58:09;97200;;;11.5;49.5
68489;BME280;55481;48.764;8.936;2023-06-01T05:00:40;97210;;;11.6;49.5
68489;BME280;55481;48.764;8.936;2023-06-01T05:03:24;97210;;;11.6;49.5
68489;BME280;55481;48.764;8.936;2023-06-01T05:05:54;97210;;;11.7;49.5
68489;BME280;55481;48.764;8.936;2023-06-01T05:08:24;97210;;;11.7;49.5
68489;BME280;55481;48.764;8.936;2023-06-01T05:10:55;97210;;;11.9;49
68489;BME280;55481;48.764;8.936;2023-06-01T05:13:24;97210;;;12.1;48.5
68489;BME280;55481;48.764;8.936;2023-06-01T05:15:55;97210;;;12.3;48.5
68489;BME280;55481;48.764;8.936;2023-06-01T05:20:49;97200;;;12.8;48
68489;BME280;55481;48.764;8.936;2023-06-01T05:23:20;97210;;;13.1;47.5
68489;BME280;55481;48.764;8.936;2023-06-01T05:25:51;97210;;;13.3;47
68489;BME280;55481;48.764;8.936;2023-06-01T05:28:15;97200;;;13.4;47.5
68489;BME280;55481;48.764;8.936;2023-06-01T05:30:46;97200;;;13.7;47
68489;BME280;55481;48.764;8.936;2023-06-01T05:33:16;97200;;;13.9;47
68489;BME280;55481;48.764;8.936;2023-06-01T05:35:48;97200;;;14.1;46.5
68489;BME280;55481;48.764;8.936;2023-06-01T05:38:18;97200;;;14.1;46.5
68489;BME280;55481;48.764;8.936;2023-06-01T05:45:50;97190;;;14.3;47
68489;BME280;55481;48.764;8.936;2023-06-01T05:48:28;97190;;;14.4;47
68489;BME280;55481;48.764;8.936;2023-06-01T05:50:58;97190;;;14.7;46.5
68489;BME280;55481;48.764;8.936;2023-06-01T05:55:53;97190;;;15.1;46
68489;BME280;55481;48.764;8.936;2023-06-01T05:58:23;97190;;;15.2;46
68489;BME280;55481;48.764;8.936;2023-06-01T06:00:55;97190;;;15.3;46
68489;BME280;55481;48.764;8.936;2023-06-01T06:10:57;97200;;;15.9;46
68489;BME280;55481;48.764;8.936;2023-06-01T06:16:12;97190;;;15.9;46
68489;BME280;55481;48.764;8.936;2023-06-01T06:18:42;97190;;;16.1;46
68489;BME280;55481;48.764;8.936;2023-06-01T06:23:36;97190;;;16.4;45.5
68489;BME280;55481;48.764;8.936;2023-06-01T06:26:07;97190;;;16.5;45.5
68489;BME280;55481;48.764;8.936;2023-06-01T06:28:38;97190;;;16.6;45.5
68489;BME280;55481;48.764;8.936;2023-06-01T06:38:35;97190;;;17.2;45
68489;BME280;55481;48.764;8.936;2023-06-01T06:41:06;97180;;;17.2;45
68489;BME280;55481;48.764;8.936;2023-06-01T06:43:36;97190;;;17.5;45
68489;BME280;55481;48.764;8.936;2023-06-01T06:48:44;97190;;;17.8;44.5
68489;BME280;55481;48.764;8.936;2023-06-01T06:51:15;97190;;;17.9;44.5
68489;BME280;55481;48.764;8.936;2023-06-01T06:53:46;97190;;;18;44.5
68489;BME280;55481;48.764;8.936;2023-06-01T06:56:17;97180;;;18.1;44.5
68489;BME280;55481;48.764;8.936;2023-06-01T06:58:58;97190;;;18.2;44
68489;BME280;55481;48.764;8.936;2023-06-01T07:01:24;97190;;;18.3;44
68489;BME280;55481;48.764;8.936;2023-06-01T07:03:48;97190;;;18.4;44
68489;BME280;55481;48.764;8.936;2023-06-01T07:06:19;97180;;;18.6;44
68489;BME280;55481;48.764;8.936;2023-06-01T07:13:58;97180;;;18.8;44
68489;BME280;55481;48.764;8.936;2023-06-01T07:16:28;97180;;;19.1;43.5
68489;BME280;55481;48.764;8.936;2023-06-01T07:18:52;97180;;;19.2;43.5
68489;BME280;55481;48.764;8.936;2023-06-01T07:21:23;97180;;;19.1;43.5
68489;BME280;55481;48.764;8.936;2023-06-01T07:24:06;97180;;;19.1;43.5
68489;BME280;55481;48.764;8.936;2023-06-01T07:29:08;97180;;;19.5;43.5
68489;BME280;55481;48.764;8.936;2023-06-01T07:31:32;97180;;;19.7;43
68489;BME280;55481;48.764;8.936;2023-06-01T07:34:02;97180;;;19.7;43
68489;BME280;55481;48.764;8.936;2023-06-01T07:38:56;97180;;;19.4;43.5
68489;BME280;55481;48.764;8.936;2023-06-01T07:41:27;97180;;;19.8;43
68489;BME280;55481;48.764;8.936;2023-06-01T07:43:59;97170;;;20.2;42.5
68489;BME280;55481;48.764;8.936;2023-06-01T07:46:29;97170;;;20.4;42.5
68489;BME280;55481;48.764;8.936;2023-06-01T07:49:00;97170;;;20.2;42.5
68489;BME280;55481;48.764;8.936;2023-06-01T07:53:55;97170;;;20.8;42
68489;BME280;55481;48.764;8.936;2023-06-01T07:56:26;97170;;;20.9;42
68489;BME280;55481;48.764;8.936;2023-06-01T07:58:56;97170;;;21;42
68489;BME280;55481;48.764;8.936;2023-06-01T08:01:27;97170;;;21;42
68489;BME280;55481;48.764;8.936;2023-06-01T08:03:58;97170;;;21;42
68489;BME280;55481;48.764;8.936;2023-06-01T08:08:59;97170;;;21.2;42
68489;BME280;55481;48.764;8.936;2023-06-01T08:11:30;97180;;;21.4;42
68489;BME280;55481;48.764;8.936;2023-06-01T08:14:14;97170;;;21.6;41.5
68489;BME280;55481;48.764;8.936;2023-06-01T08:16:44;97170;;;21.7;41.5
68489;BME280;55481;48.764;8.936;2023-06-01T08:21:39;97170;;;21.9;41.5
68489;BME280;55481;48.764;8.936;2023-06-01T08:24:09;97170;;;21.8;42
68489;BME280;55481;48.764;8.936;2023-06-01T08:26:41;97170;;;22.1;41.5
68489;BME280;55481;48.764;8.936;2023-06-01T08:29:12;97170;;;22.1;41.5
68489;BME280;55481;48.764;8.936;2023-06-01T08:31:43;97160;;;22;41.5
68489;BME280;55481;48.764;8.936;2023-06-01T08:34:13;97160;;;22.2;41.5
68489;BME280;55481;48.764;8.936;2023-06-01T08:36:46;97160;;;22.3;41.5
68489;BME280;55481;48.764;8.936;2023-06-01T08:39:22;97160;;;22.4;41.5
68489;BME280;55481;48.764;8.936;2023-06-01T08:41:51;97160;;;22.1;42
68489;BME280;55481;48.764;8.936;2023-06-01T08:44:17;97150;;;22.3;41.5
68489;BME280;55481;48.764;8.936;2023-06-01T08:46:55;97150;;;22.6;41
68489;BME280;55481;48.764;8.936;2023-06-01T08:54:27;97150;;;22.9;41
68489;BME280;55481;48.764;8.936;2023-06-01T08:56:59;97150;;;22.9;41
68489;BME280;55481;48.764;8.936;2023-06-01T08:59:21;97150;;;22.8;41
68489;BME280;55481;48.764;8.936;2023-06-01T09:01:53;97140;;;22.8;41
68489;BME280;55481;48.764;8.936;2023-06-01T09:04:24;97140;;;22.9;41
68489;BME280;55481;48.764;8.936;2023-06-01T09:06:54;97140;;;23.1;41
68489;BME280;55481;48.764;8.936;2023-06-01T09:14:21;97140;;;23.5;40.5
68489;BME280;55481;48.764;8.936;2023-06-01T09:16:51;97150;;;23.7;40.5
68489;BME280;55481;48.764;8.936;2023-06-01T09:19:23;97140;;;23.8;40
68489;BME280;55481;48.764;8.936;2023-06-01T09:21:56;97150;;;23.5;40.5
68489;BME280;55481;48.764;8.936;2023-06-01T09:24:25;97150;;;23.4;41
68489;BME280;55481;48.764;8.936;2023-06-01T09:26:59;97150;;;23.4;41
68489;BME280;55481;48.764;8.936;2023-06-01T09:29:31;97150;;;23.5;40.5
68489;BME280;55481;48.764;8.936;2023-06-01T09:32:02;97150;;;23.7;40.5
68489;BME280;55481;48.764;8.936;2023-06-01T09:34:33;97140;;;23.9;40
68489;BME280;55481;48.764;8.936;2023-06-01T09:37:05;97140;;;24.2;40
68489;BME280;55481;48.764;8.936;2023-06-01T09:39:35;97140;;;24.1;40
68489;BME280;55481;48.764;8.936;2023-06-01T09:42:13;97140;;;24.1;40
68489;BME280;55481;48.764;8.936;2023-06-01T09:44:44;97140;;;24.2;40
68489;BME280;55481;48.764;8.936;2023-06-01T09:49:36;97140;;;24.3;40
68489;BME280;55481;48.764;8.936;2023-06-01T09:54:37;97130;;;24.5;39.5
68489;BME280;55481;48.764;8.936;2023-06-01T09:57:05;97120;;;24.2;40
68489;BME280;55481;48.764;8.936;2023-06-01T09:59:50;97120;;;24.5;40
68489;BME280;55481;48.764;8.936;2023-06-01T10:02:08;97120;;;24.8;39.5
68489;BME280;55481;48.764;8.936;2023-06-01T10:04:37;97120;;;25;39
68489;BME280;55481;48.764;8.936;2023-06-01T10:12:09;97110;;;25.1;39.5
68489;BME280;55481;48.764;8.936;2023-06-01T10:14:39;97110;;;25.4;39
68489;BME280;55481;48.764;8.936;2023-06-01T10:17:20;97110;;;25.6;39
68489;BME280;55481;48.764;8.936;2023-06-01T10:19:48;97110;;;25.6;39
68489;BME280;55481;48.764;8.936;2023-06-01T10:24:43;97110;;;25.3;39.5
68489;BME280;55481;48.764;8.936;2023-06-01T10:27:16;97110;;;25.4;39.5
68489;BME280;55481;48.764;8.936;2023-06-01T10:29:45;97110;;;25.7;39
68489;BME280;55481;48.764;8.936;2023-06-01T10:32:46;97100;;;25.8;38.5
68489;BME280;55481;48.764;8.936;2023-06-01T10:39:48;97100;;;25.4;39.5
68489;BME280;55481;48.764;8.936;2023-06-01T10:52:36;97100;;;26;38.5
68489;BME280;55481;48.764;8.936;2023-06-01T10:55:24;97090;;;26.3;38.5
68489;BME280;55481;48.764;8.936;2023-06-01T10:57:35;97090;;;26.2;38.5
68489;BME280;55481;48.764;8.936;2023-06-01T11:00:27;97080;;;25.9;39
68489;BME280;55481;48.764;8.936;2023-06-01T11:06:02;97080;;;26.1;38.5
68489;BME280;55481;48.764;8.936;2023-06-01T11:10:01;97080;;;26.3;38.5
68489;BME280;55481;48.764;8.936;2023-06-01T11:13:36;97070;;;26.6;38
68489;BME280;55481;48.764;8.936;2023-06-01T11:15:10;97070;;;26.6;38
68489;BME280;55481;48.764;8.936;2023-06-01T11:17:34;97080;;;26.7;38
68489;BME280;55481;48.764;8.936;2023-06-01T11:20:05;97080;;;26.7;38
68489;BME280;55481;48.764;8.936;2023-06-01T11:22:36;97070;;;27.1;37.5
68489;BME280;55481;48.764;8.936;2023-06-01T11:25:08;97070;;;27.3;37.5
68489;BME280;55481;48.764;8.936;2023-06-01T11:27:53;97070;;;27.6;37
68489;BME280;55481;48.764;8.936;2023-06-01T11:36:37;97060;;;27.6;37.5
68489;BME280;55481;48.764;8.936;2023-06-01T11:38:54;97060;;;27.9;37
68489;BME280;55481;48.764;8.936;2023-06-01T11:46:25;97050;;;30.3;33.5
68489;BME280;55481;48.764;8.936;2023-06-01T11:49:00;97050;;;30.4;33.5
68489;BME280;55481;48.764;8.936;2023-06-01T11:51:28;97050;;;30.5;33
68489;BME280;55481;48.764;8.936;2023-06-01T11:54:00;97040;;;31.6;32
68489;BME280;55481;48.764;8.936;2023-06-01T11:56:32;97050;;;30.8;33
68489;BME280;55481;48.764;8.936;2023-06-01T11:59:00;97040;;;30.6;33.5
68489;BME280;55481;48.764;8.936;2023-06-01T12:04:01;97040;;;30.4;34
68489;BME280;55481;48.764;8.936;2023-06-01T12:14:23;97030;;;31.7;32.5
68489;BME280;55481;48.764;8.936;2023-06-01T12:16:51;97020;;;32.1;32
68489;BME280;55481;48.764;8.936;2023-06-01T12:19:18;97030;;;32.1;32
68489;BME280;55481;48.764;8.936;2023-06-01T12:21:48;97030;;;31.3;33
68489;BME280;55481;48.764;8.936;2023-06-01T12:24:18;97030;;;30.9;33.5
68489;BME280;55481;48.764;8.936;2023-06-01T12:26:49;97030;;;30.6;34
68489;BME280;55481;48.764;8.936;2023-06-01T12:29:33;97030;;;30;34.5
68489;BME280;55481;48.764;8.936;2023-06-01T12:31:55;97020;;;30.4;34
68489;BME280;55481;48.764;8.936;2023-06-01T12:34:32;97020;;;30.9;33
68489;BME280;55481;48.764;8.936;2023-06-01T12:36:51;97020;;;31.3;32.5
68489;BME280;55481;48.764;8.936;2023-06-01T12:39:36;97010;;;30.5;33.5
68489;BME280;55481;48.764;8.936;2023-06-01T12:44:21;97010;;;30.8;33.5
68489;BME280;55481;48.764;8.936;2023-06-01T12:46:45;97000;;;31.9;32
68489;BME280;55481;48.764;8.936;2023-06-01T12:49:16;97010;;;31.2;32.5
68489;BME280;55481;48.764;8.936;2023-06-01T12:51:47;97000;;;31.8;32
68489;BME280;55481;48.764;8.936;2023-06-01T12:56:50;97000;;;31.3;32.5
68489;BME280;55481;48.764;8.936;2023-06-01T12:59:26;97000;;;30.6;33.5
68489;BME280;55481;48.764;8.936;2023-06-01T13:01:51;97000;;;30.8;33
68489;BME280;55481;48.764;8.936;2023-06-01T13:06:59;97000;;;30.5;33.5
68489;BME280;55481;48.764;8.936;2023-06-01T13:09:29;97010;;;28.6;36
68489;BME280;55481;48.764;8.936;2023-06-01T13:14:22;97000;;;31.4;32
68489;BME280;55481;48.764;8.936;2023-06-01T13:16:54;96990;;;31.4;32
68489;BME280;55481;48.764;8.936;2023-06-01T13:19:31;96980;;;31.2;32
68489;BME280;55481;48.764;8.936;2023-06-01T13:24:47;96990;;;31.7;31.5
68489;BME280;55481;48.764;8.936;2023-06-01T13:27:03;96990;;;31.3;32
68489;BME280;55481;48.764;8.936;2023-06-01T13:31:57;96990;;;31.5;31.5
68489;BME280;55481;48.764;8.936;2023-06-01T13:34:28;96980;;;31.1;32
68489;BME280;55481;48.764;8.936;2023-06-01T13:36:59;96980;;;30.5;32.5
68489;BME280;55481;48.764;8.936;2023-06-01T13:39:23;96980;;;31.6;31
68489;BME280;55481;48.764;8.936;2023-06-01T13:46:55;96970;;;32.7;30
68489;BME280;55481;48.764;8.936;2023-06-01T13:49:32;96970;;;33.2;29.5
68489;BME280;55481;48.764;8.936;2023-06-01T13:51:57;96960;;;33.2;29
68489;BME280;55481;48.764;8.936;2023-06-01T13:54:28;96960;;;32.5;30
68489;BME280;55481;48.764;8.936;2023-06-01T13:57:11;96960;;;32.7;29.5
68489;BME280;55481;48.764;8.936;2023-06-01T13:59:41;96960;;;30.7;31.5
68489;BME280;55481;48.764;8.936;2023-06-01T14:04:35;96960;;;30.9;31
68489;BME280;55481;48.764;8.936;2023-06-01T14:07:10;96950;;;32.1;29.5
68489;BME280;55481;48.764;8.936;2023-06-01T14:09:37;96950;;;31.5;30
68489;BME280;55481;48.764;8.936;2023-06-01T14:14:45;96930;;;32.3;29
68489;BME280;55481;48.764;8.936;2023-06-01T14:17:22;96950;;;32.8;28.5
68489;BME280;55481;48.764;8.936;2023-06-01T14:22:16;96950;;;32.9;28.5
68489;BME280;55481;48.764;8.936;2023-06-01T14:24:47;96940;;;32.9;28.5
68489;BME280;55481;48.764;8.936;2023-06-01T14:27:16;96940;;;32.3;29
68489;BME280;55481;48.764;8.936;2023-06-01T14:29:40;96950;;;31.3;30.5
68489;BME280;55481;48.764;8.936;2023-06-01T14:34:46;96940;;;30.8;30
68489;BME280;55481;48.764;8.936;2023-06-01T14:37:14;96930;;;31.6;29.5
68489;BME280;55481;48.764;8.936;2023-06-01T14:39:51;96930;;;32.6;28
68489;BME280;55481;48.764;8.936;2023-06-01T14:44:47;96920;;;32.2;29
68489;BME280;55481;48.764;8.936;2023-06-01T14:47:18;96910;;;34;27
68489;BME280;55481;48.764;8.936;2023-06-01T14:49:49;96920;;;33.6;27
68489;BME280;55481;48.764;8.936;2023-06-01T14:52:26;96920;;;33.5;27
68489;BME280;55481;48.764;8.936;2023-06-01T14:54:51;96920;;;33.7;27
68489;BME280;55481;48.764;8.936;2023-06-01T14:57:22;96910;;;33.9;27
68489;BME280;55481;48.764;8.936;2023-06-01T14:59:53;96910;;;34.2;26.5
68489;BME280;55481;48.764;8.936;2023-06-01T15:02:24;96910;;;33.5;27
68489;BME280;55481;48.764;8.936;2023-06-01T15:04:54;96910;;;33.2;27
68489;BME280;55481;48.764;8.936;2023-06-01T15:07:25;96920;;;32.6;28
68489;BME280;55481;48.764;8.936;2023-06-01T15:10:03;96910;;;32;28.5
68489;BME280;55481;48.764;8.936;2023-06-01T15:12:36;96910;;;32;28
68489;BME280;55481;48.764;8.936;2023-06-01T15:17:32;96910;;;29.7;30.5
68489;BME280;55481;48.764;8.936;2023-06-01T15:20:01;96920;;;29.3;30.5
68489;BME280;55481;48.764;8.936;2023-06-01T15:22:37;96920;;;28.8;31
68489;BME280;55481;48.764;8.936;2023-06-01T15:25:08;96910;;;28.2;31.5
68489;BME280;55481;48.764;8.936;2023-06-01T15:27:32;96910;;;28.4;31
68489;BME280;55481;48.764;8.936;2023-06-01T15:30:09;96910;;;28.2;31
68489;BME280;55481;48.764;8.936;2023-06-01T15:32:34;96900;;;27.8;31.5
68489;BME280;55481;48.764;8.936;2023-06-01T15:35:06;96900;;;27.7;31.5
68489;BME280;55481;48.764;8.936;2023-06-01T15:37:36;96910;;;27.3;31.5
68489;BME280;55481;48.764;8.936;2023-06-01T15:40:14;96910;;;26.9;32
68489;BME280;55481;48.764;8.936;2023-06-01T15:45:10;96910;;;26.6;32
68489;BME280;55481;48.764;8.936;2023-06-01T15:47:39;96910;;;26.5;32
68489;BME280;55481;48.764;8.936;2023-06-01T15:50:10;96910;;;26.5;32
68489;BME280;55481;48.764;8.936;2023-06-01T15:52:41;96900;;;26.4;31.5
68489;BME280;55481;48.764;8.936;2023-06-01T15:55:12;96900;;;26.3;32
68489;BME280;55481;48.764;8.936;2023-06-01T15:57:43;96900;;;26.2;32
68489;BME280;55481;48.764;8.936;2023-06-01T16:00:07;96900;;;26.1;32
68489;BME280;55481;48.764;8.936;2023-06-01T16:02:37;96900;;;26.1;32
68489;BME280;55481;48.764;8.936;2023-06-01T16:10:10;96900;;;26;31.5
68489;BME280;55481;48.764;8.936;2023-06-01T16:12:41;96890;;;25.9;32
68489;BME280;55481;48.764;8.936;2023-06-01T16:15:12;96880;;;25.9;32
68489;BME280;55481;48.764;8.936;2023-06-01T16:17:42;96890;;;25.8;32
68489;BME280;55481;48.764;8.936;2023-06-01T16:20:30;96880;;;25.6;32
68489;BME280;55481;48.764;8.936;2023-06-01T16:22:50;96870;;;25.6;32
68489;BME280;55481;48.764;8.936;2023-06-01T16:25:22;96870;;;25.5;32
68489;BME280;55481;48.764;8.936;2023-06-01T16:27:59;96870;;;25.6;32
68489;BME280;55481;48.764;8.936;2023-06-01T16:30:30;96870;;;25.6;32
68489;BME280;55481;48.764;8.936;2023-06-01T16:33:07;96860;;;25.6;31.5
68489;BME280;55481;48.764;8.936;2023-06-01T16:37:54;96860;;;25.5;32
68489;BME280;55481;48.764;8.936;2023-06-01T16:40:25;96860;;;25.4;32
68489;BME280;55481;48.764;8.936;2023-06-01T16:42:56;96860;;;25.3;32
68489;BME280;55481;48.764;8.936;2023-06-01T16:45:20;96860;;;25.3;32
68489;BME280;55481;48.764;8.936;2023-06-01T16:57:54;96860;;;25;32
68489;BME280;55481;48.764;8.936;2023-06-01T17:00:25;96860;;;24.9;32
68489;BME280;55481;48.764;8.936;2023-06-01T17:02:56;96860;;;24.9;32
68489;BME280;55481;48.764;8.936;2023-06-01T17:10:28;96850;;;25;32
68489;BME280;55481;48.764;8.936;2023-06-01T17:12:58;96840;;;24.9;32
68489;BME280;55481;48.764;8.936;2023-06-01T17:15:30;96850;;;24.8;32
68489;BME280;55481;48.764;8.936;2023-06-01T17:18:00;96850;;;24.9;32
68489;BME280;55481;48.764;8.936;2023-06-01T17:20:31;96850;;;24.9;32
68489;BME280;55481;48.764;8.936;2023-06-01T17:25:38;96850;;;24.8;32
68489;BME280;55481;48.764;8.936;2023-06-01T17:28:09;96850;;;24.8;32
68489;BME280;55481;48.764;8.936;2023-06-01T17:30:41;96840;;;24.8;32
68489;BME280;55481;48.764;8.936;2023-06-01T17:40:37;96850;;;24.7;32.5
68489;BME280;55481;48.764;8.936;2023-06-01T17:43:16;96850;;;24.6;32.5
68489;BME280;55481;48.764;8.936;2023-06-01T17:45:38;96850;;;24.6;32.5
68489;BME280;55481;48.764;8.936;2023-06-01T17:48:09;96840;;;24.5;32.5
68489;BME280;55481;48.764;8.936;2023-06-01T17:50:53;96850;;;24.5;32.5
68489;BME280;55481;48.764;8.936;2023-06-01T17:53:23;96840;;;24.4;32.5
68489;BME280;55481;48.764;8.936;2023-06-01T17:55:53;96850;;;24.3;32.5
68489;BME280;55481;48.764;8.936;2023-06-01T18:00:47;96840;;;24.2;33
68489;BME280;55481;48.764;8.936;2023-06-01T18:03:24;96840;;;24.1;33
68489;BME280;55481;48.764;8.936;2023-06-01T18:05:55;96850;;;24;33
68489;BME280;55481;48.764;8.936;2023-06-01T18:10:51;96840;;;24;33
68489;BME280;55481;48.764;8.936;2023-06-01T18:15:59;96850;;;23.8;33
68489;BME280;55481;48.764;8.936;2023-06-01T18:18:29;96850;;;23.7;33.5
68489;BME280;55481;48.764;8.936;2023-06-01T18:20:52;96840;;;23.7;33.5
68489;BME280;55481;48.764;8.936;2023-06-01T18:23:23;96840;;;23.6;33.5
68489;BME280;55481;48.764;8.936;2023-06-01T18:25:55;96840;;;23.4;33.5
68489;BME280;55481;48.764;8.936;2023-06-01T18:28:32;96840;;;23.3;34
68489;BME280;55481;48.764;8.936;2023-06-01T18:31:03;96840;;;23.2;34
68489;BME280;55481;48.764;8.936;2023-06-01T18:35:59;96840;;;23.1;34
68489;BME280;55481;48.764;8.936;2023-06-01T18:38:29;96840;;;23;34.5
68489;BME280;55481;48.764;8.936;2023-06-01T18:41:00;96840;;;22.9;34.5
68489;BME280;55481;48.764;8.936;2023-06-01T18:43:31;96840;;;22.8;34.5
68489;BME280;55481;48.764;8.936;2023-06-01T18:46:02;96840;;;22.7;34.5
68489;BME280;55481;48.764;8.936;2023-06-01T18:51:04;96850;;;22.5;35
68489;BME280;55481;48.764;8.936;2023-06-01T18:53:35;96850;;;22.5;35
68489;BME280;55481;48.764;8.936;2023-06-01T18:56:06;96850;;;22.3;35
68489;BME280;55481;48.764;8.936;2023-06-01T18:58:37;96850;;;22.1;35.5